CYZV

Sept-Îles Airport

Sept-Îles, Quebec, Canada
TAF CYZV 210539Z 2106/2206 03008KT P6SM FEW060 OVC100 FM210800 01008KT P6SM OVC080 FM211100 01008KT 6SM -SN BKN020 OVC060 PROB30 2112/2118 11/2SM -SN FM211800 02010KT 3SM -SN OVC030 RMK NXT FCST BY 211200Z
Issued Valid From Valid To
Nov-21 @ 05:39 UTC
(23 minutes ago)
Nov-21 @ 06:00 UTC
(2 minutes ago)
Nov-22 @ 06:00 UTC
(in 24 hours)
Nov-21 @ 06:00 to Nov-21 @ 08:00
TAF CYZV 210539Z 2106/2206 03008KT P6SM FEW060 OVC100
Wind Visibility Clouds
30° at 8 knots Greater than 6 miles
  • Few at 6,000' AGL
  • Overcast at 10,000' AGL
From Nov-21 @ 08:00 to Nov-21 @ 11:00
FM210800 01008KT P6SM OVC080
Wind Visibility Clouds
10° at 8 knots Greater than 6 miles
  • Overcast at 8,000' AGL
From Nov-21 @ 11:00 to Nov-21 @ 18:00
FM211100 01008KT 6SM -SN BKN020 OVC060
Wind Visibility Clouds Conditions
10° at 8 knots 6 miles
  • Broken at 2,000' AGL
  • Overcast at 6,000' AGL
  • Light Snow
Probable  (Probability 30%) Nov-21 @ 12:00 to Nov-21 @ 18:00
PROB30 2112/2118 11/2SM -SN
Visibility Conditions
1 1/2 miles
  • Light Snow
From Nov-21 @ 18:00 to Nov-22 @ 06:00
FM211800 02010KT 3SM -SN OVC030 RMK NXT FCST BY 211200Z
Wind Visibility Clouds Conditions
20° at 10 knots 3 miles
  • Overcast at 3,000' AGL
  • Light Snow
TAF CYZV 210539Z 2106/2206 03008KT P6SM FEW060 OVC100 FM210800 01008KT P6SM OVC080 FM211100 01008KT 6SM -SN BKN020 OVC060 PROB30 2112/2118 11/2SM -SN FM211800 02010KT 3SM -SN OVC030 RMK NXT FCST BY 211200Z
Issued Nov-21 @ 05:39 UTC
(23 minutes ago)
Valid From Nov-21 @ 06:00 UTC
(2 minutes ago)
Valid To Nov-22 @ 06:00 UTC
(in 24 hours)
Nov-21 @ 06:00 - Nov-21 @ 08:00
Wind Visibility
30° at 8 knots Greater than 6 miles
Clouds
  • Few at 6,000' AGL
  • Overcast at 10,000' AGL
From Nov-21 @ 08:00 - Nov-21 @ 11:00
Wind Visibility
10° at 8 knots Greater than 6 miles
Clouds
  • Overcast at 8,000' AGL
From Nov-21 @ 11:00 - Nov-21 @ 18:00
Wind Visibility
10° at 8 knots 6 miles
Clouds
  • Broken at 2,000' AGL
  • Overcast at 6,000' AGL
Conditions
  • Light Snow
Probability 30% Probable Nov-21 @ 12:00 - Nov-21 @ 18:00
Conditions
  • Light Snow
From Nov-21 @ 18:00 - Nov-22 @ 06:00
Wind Visibility
20° at 10 knots 3 miles
Clouds
  • Overcast at 3,000' AGL
Conditions
  • Light Snow